Costa Luminosa — ICGU — position and weather

sailwx.info

Track history (hours):
 
Tides and Currents Weather Stations Pressure Air Temp Water Temp Dewpoint Dewpoint Depression Visibility Wind Speed Wind Dir Waves Ship Positions

Costa Luminosa

Last reported at 2017-May-27 09:30 UTC. Time now 2017-May-27 09:47 UTC.
Position N 45°26' E 012°18'.

Length 294 m; draft 8 m.

Type: Passenger vessel. MMSI: 247257900.

Date/timePositionNaut miles runAvg speedWind from/ knotsBaromVisibWave heightAir tempDewpointWater temp
2017-May-27 09:30N 45°26' E 012°18'0 0.0
2017-May-27 09:00N 45°26' E 012°19'0 0.0
2017-May-27 08:30N 45°26' E 012°19'0 0.0
2017-May-27 07:57N 45°26' E 012°19'0 0.0
2017-May-27 07:27N 45°26' E 012°19'0 0.0
2017-May-27 07:00N 45°26' E 012°19'0 0.0
2017-May-27 06:30N 45°26' E 012°19'1 2.3
2017-May-27 06:00N 45°26' E 012°20'2 5.0
2017-May-27 05:30N 45°26' E 012°23'5 9.5
2017-May-27 05:01N 45°24' E 012°29'612.8
2017-May-27 04:31N 45°18' E 012°32'917.7
2017-May-27 04:00N 45°12' E 012°41'917.2
2017-May-27 03:31N 45°06' E 012°50'1020.2
2017-May-27 03:00N 44°56' E 012°56'1020.5
2017-May-27 02:31N 44°47' E 013°01'1020.4
2017-May-27 02:00N 44°37' E 013°06'1020.4
2017-May-27 01:30N 44°28' E 013°11'1020.0
2017-May-27 01:01N 44°19' E 013°17'1020.5
2017-May-27 00:30N 44°12' E 013°27'1020.5
2017-May-27 00:01N 44°05' E 013°38'1220.4
2017-May-26 23:26N 43°58' E 013°51'820.3
2017-May-26 23:00N 43°54' E 014°02'1020.2
2017-May-26 22:30N 43°49' E 014°14'2020.3
2017-May-26 21:30N 43°37' E 014°37'  
2017-May-23 20:03N 37°24' E 023°39'115.1
2017-May-23 20:00N 37°25' E 023°39'814.9
2017-May-23 19:30N 37°32' E 023°41'714.5
2017-May-23 19:00N 37°39' E 023°42'713.4
2017-May-23 18:31N 37°45' E 023°38'713.8
2017-May-23 18:01N 37°52' E 023°37'5 9.2
2017-May-23 17:30N 37°56' E 023°38'0 0.5
2017-May-23 16:58N 37°56' E 023°38'0 0.0
2017-May-23 16:31N 37°56' E 023°38'0 0.0
2017-May-23 16:01N 37°56' E 023°38'0 0.0
2017-May-23 15:28N 37°56' E 023°38'0 0.0
2017-May-23 14:58N 37°56' E 023°38'0 0.0
2017-May-23 14:28N 37°56' E 023°38'0 0.0
2017-May-23 13:28N 37°56' E 023°38'0 0.0
2017-May-23 13:01N 37°56' E 023°38'0 0.0
2017-May-23 12:31N 37°56' E 023°38'0 0.0
2017-May-23 11:58N 37°56' E 023°38'0 0.0
2017-May-23 11:28N 37°56' E 023°38'0 0.0
2017-May-23 10:55N 37°56' E 023°38'0 0.0
2017-May-23 10:31N 37°56' E 023°38'1 2.7
2017-May-23 10:01N 37°56' E 023°37'4 8.4
2017-May-23 09:30N 37°52' E 023°38'713.4
2017-May-23 09:00N 37°46' E 023°42'714.0
2017-May-23 08:30N 37°39' E 023°45'815.4
2017-May-23 08:00N 37°32' E 023°43'1019.1
2017-May-23 07:30N 37°22' E 023°40'1019.4
2017-May-23 07:00N 37°13' E 023°38'1019.4
2017-May-23 06:30N 37°03' E 023°36'58817.1
2017-May-21 20:07N 43°50' E 014°18'219.9
2017-May-21 20:00N 43°51' E 014°16'1019.8
2017-May-21 19:30N 43°60' E 014°08'1020.0
2017-May-21 19:00N 44°08' E 014°00'1019.8
2017-May-21 18:30N 44°16' E 013°53'1019.7
2017-May-21 18:00N 44°24' E 013°45'1019.5
2017-May-21 17:30N 44°32' E 013°38'1019.3
2017-May-21 17:00N 44°40' E 013°30'1019.1
2017-May-21 16:30N 44°48' E 013°23'918.9
2017-May-21 16:00N 44°56' E 013°16'1019.0
2017-May-21 15:30N 45°05' E 013°09'918.9
2017-May-21 15:00N 45°13' E 013°03'1717.5
2017-May-21 14:00N 45°30' E 013°11'918.4
2017-May-21 13:30N 45°34' E 013°22'918.2
2017-May-21 13:00N 45°38' E 013°34'714.8
2017-May-21 12:30N 45°39' E 013°45'1 1.9
2017-May-21 12:00N 45°39' E 013°46'0 0.0
2017-May-21 11:28N 45°39' E 013°46'0 0.0
2017-May-21 10:58N 45°39' E 013°46'0 0.0
2017-May-21 10:28N 45°39' E 013°46'0 0.0
2017-May-21 09:55N 45°39' E 013°46'0 0.0
2017-May-21 09:25N 45°39' E 013°46'0 0.0
2017-May-21 08:58N 45°39' E 013°46'0 0.0
2017-May-21 08:25N 45°39' E 013°46'0 0.0
2017-May-21 07:55N 45°39' E 013°46'0 0.0
2017-May-21 07:28N 45°39' E 013°46'0 0.0
2017-May-21 06:52N 45°39' E 013°46'0 0.0
2017-May-21 06:28N 45°39' E 013°46'0 0.0
2017-May-21 05:58N 45°39' E 013°46'0 0.0
2017-May-21 05:28N 45°39' E 013°46'0 0.0
2017-May-21 04:58N 45°39' E 013°46'0 0.2
2017-May-21 04:31N 45°39' E 013°46'3 5.0
2017-May-21 04:01N 45°39' E 013°42'4 8.4
2017-May-21 03:31N 45°37' E 013°37'5 9.0
2017-May-21 03:00N 45°35' E 013°31'4 8.8
2017-May-21 02:31N 45°32' E 013°26'5 9.3
2017-May-21 02:00N 45°30' E 013°20'5 9.3
2017-May-21 01:30N 45°28' E 013°14'5 9.4
2017-May-21 01:01N 45°27' E 013°08'4 8.6
2017-May-21 00:30N 45°26' E 013°02'4 7.3
2017-May-21 00:00N 45°26' E 012°57'5 9.5
2017-May-20 23:30N 45°22' E 012°53'5 9.5
2017-May-20 23:01N 45°18' E 012°50'5 9.3
2017-May-20 22:30N 45°13' E 012°47'5 9.2
2017-May-20 22:00N 45°10' E 012°43'4 7.6
2017-May-20 21:31N 45°08' E 012°38'5 9.0
2017-May-20 21:00N 45°11' E 012°33'4 8.4
2017-May-20 20:30N 45°15' E 012°30'5 9.4
2017-May-20 20:01N 45°19' E 012°30'5 9.1
2017-May-20 19:31N 45°24' E 012°29'4 8.6
2017-May-20 19:01N 45°26' E 012°24'3 5.4
2017-May-20 18:30N 45°26' E 012°20'1 2.5
2017-May-20 18:01N 45°26' E 012°19'0 0.0
2017-May-20 17:30N 45°26' E 012°19'0 0.0
2017-May-20 17:00N 45°26' E 012°19'0 0.0
2017-May-20 16:30N 45°26' E 012°19'0 0.0
2017-May-20 16:00N 45°26' E 012°19'0 0.0
2017-May-20 15:30N 45°26' E 012°19'0 0.0
2017-May-20 15:00N 45°26' E 012°19'0 0.0
2017-May-20 14:30N 45°26' E 012°19'0 0.0
2017-May-20 13:30N 45°26' E 012°19'0 0.0
2017-May-20 13:00N 45°26' E 012°19'0 0.0
2017-May-20 12:30N 45°26' E 012°19'0 0.0
2017-May-20 12:00N 45°26' E 012°19'0 0.0
2017-May-20 11:30N 45°26' E 012°19'0 0.0
2017-May-20 11:00N 45°26' E 012°19'0 0.0
2017-May-20 10:30N 45°26' E 012°19'0 0.0
2017-May-20 10:00N 45°26' E 012°19'0 0.0
2017-May-20 09:30N 45°26' E 012°19'0 0.0
2017-May-20 09:00N 45°26' E 012°19'0 0.0
2017-May-20 08:30N 45°26' E 012°19'0 0.0
2017-May-20 08:00N 45°26' E 012°19'0 0.0
2017-May-20 07:30N 45°26' E 012°19'0 0.0
2017-May-20 06:57N 45°26' E 012°19'0 0.0
2017-May-20 06:30N 45°26' E 012°19'1 1.5
2017-May-20 06:00N 45°26' E 012°19'2 4.9
2017-May-20 05:30N 45°26' E 012°23'5 9.1
2017-May-20 05:00N 45°24' E 012°29'611.2
2017-May-20 04:31N 45°19' E 012°32'917.3
2017-May-20 04:00N 45°13' E 012°40'917.7
2017-May-20 03:31N 45°06' E 012°49'918.8
2017-May-20 03:01N 44°58' E 012°55'1019.5
2017-May-20 02:30N 44°49' E 012°60'1019.8
2017-May-20 02:01N 44°40' E 013°05'1019.6
2017-May-20 01:31N 44°30' E 013°09'1019.5
2017-May-20 01:00N 44°21' E 013°14'918.9
2017-May-20 00:30N 44°14' E 013°23'1019.6
2017-May-20 00:00N 44°08' E 013°34'1019.5
2017-May-19 23:29N 44°02' E 013°45'919.0
2017-May-19 23:00N 43°56' E 013°55'1319.2
2017-May-19 22:18N 43°49' E 014°11'619.4
2017-May-19 22:01N 43°45' E 014°17'1319.3
2017-May-19 21:20N 43°39' E 014°32'619.2
2017-May-19 21:01N 43°35' E 014°39'25610.3
2017-May-18 20:00N 40°46' E 018°59'815.4
2017-May-18 19:30N 40°39' E 019°03'815.2
2017-May-18 18:58N 40°31' E 019°06'  
Track history (hours):
 
Tides and Currents Weather Stations Pressure Air Temp Water Temp Dewpoint Dewpoint Depression Visibility Wind Speed Wind Dir Waves Ship Positions

Costa Luminosa

Last reported at 2017-May-27 09:30 UTC. Time now 2017-May-27 09:47 UTC.
Position N 45°26' E 012°18'.

Length 294 m; draft 8 m.

Type: Passenger vessel. MMSI: 247257900.

Date/timePositionNaut miles runAvg speedWind from/ knotsBaromVisibWave heightAir tempDewpointWater temp
2017-May-27 09:30N 45°26' E 012°18'0 0.0
2017-May-27 09:00N 45°26' E 012°19'0 0.0
2017-May-27 08:30N 45°26' E 012°19'0 0.0
2017-May-27 07:57N 45°26' E 012°19'0 0.0
2017-May-27 07:27N 45°26' E 012°19'0 0.0
2017-May-27 07:00N 45°26' E 012°19'0 0.0
2017-May-27 06:30N 45°26' E 012°19'1 2.3
2017-May-27 06:00N 45°26' E 012°20'2 5.0
2017-May-27 05:30N 45°26' E 012°23'5 9.5
2017-May-27 05:01N 45°24' E 012°29'612.8
2017-May-27 04:31N 45°18' E 012°32'917.7
2017-May-27 04:00N 45°12' E 012°41'917.2
2017-May-27 03:31N 45°06' E 012°50'1020.2
2017-May-27 03:00N 44°56' E 012°56'1020.5
2017-May-27 02:31N 44°47' E 013°01'1020.4
2017-May-27 02:00N 44°37' E 013°06'1020.4
2017-May-27 01:30N 44°28' E 013°11'1020.0
2017-May-27 01:01N 44°19' E 013°17'1020.5
2017-May-27 00:30N 44°12' E 013°27'1020.5
2017-May-27 00:01N 44°05' E 013°38'1220.4
2017-May-26 23:26N 43°58' E 013°51'820.3
2017-May-26 23:00N 43°54' E 014°02'1020.2
2017-May-26 22:30N 43°49' E 014°14'2020.3
2017-May-26 21:30N 43°37' E 014°37'  
2017-May-23 20:03N 37°24' E 023°39'115.1
2017-May-23 20:00N 37°25' E 023°39'814.9
2017-May-23 19:30N 37°32' E 023°41'714.5
2017-May-23 19:00N 37°39' E 023°42'713.4
2017-May-23 18:31N 37°45' E 023°38'713.8
2017-May-23 18:01N 37°52' E 023°37'5 9.2
2017-May-23 17:30N 37°56' E 023°38'0 0.5
2017-May-23 16:58N 37°56' E 023°38'0 0.0
2017-May-23 16:31N 37°56' E 023°38'0 0.0
2017-May-23 16:01N 37°56' E 023°38'0 0.0
2017-May-23 15:28N 37°56' E 023°38'0 0.0
2017-May-23 14:58N 37°56' E 023°38'0 0.0
2017-May-23 14:28N 37°56' E 023°38'0 0.0
2017-May-23 13:28N 37°56' E 023°38'0 0.0
2017-May-23 13:01N 37°56' E 023°38'0 0.0
2017-May-23 12:31N 37°56' E 023°38'0 0.0
2017-May-23 11:58N 37°56' E 023°38'0 0.0
2017-May-23 11:28N 37°56' E 023°38'0 0.0
2017-May-23 10:55N 37°56' E 023°38'0 0.0
2017-May-23 10:31N 37°56' E 023°38'1 2.7
2017-May-23 10:01N 37°56' E 023°37'4 8.4
2017-May-23 09:30N 37°52' E 023°38'713.4
2017-May-23 09:00N 37°46' E 023°42'714.0
2017-May-23 08:30N 37°39' E 023°45'815.4
2017-May-23 08:00N 37°32' E 023°43'1019.1
2017-May-23 07:30N 37°22' E 023°40'1019.4
2017-May-23 07:00N 37°13' E 023°38'1019.4
2017-May-23 06:30N 37°03' E 023°36'58817.1
2017-May-21 20:07N 43°50' E 014°18'219.9
2017-May-21 20:00N 43°51' E 014°16'1019.8
2017-May-21 19:30N 43°60' E 014°08'1020.0
2017-May-21 19:00N 44°08' E 014°00'1019.8
2017-May-21 18:30N 44°16' E 013°53'1019.7
2017-May-21 18:00N 44°24' E 013°45'1019.5
2017-May-21 17:30N 44°32' E 013°38'1019.3
2017-May-21 17:00N 44°40' E 013°30'1019.1
2017-May-21 16:30N 44°48' E 013°23'918.9
2017-May-21 16:00N 44°56' E 013°16'1019.0
2017-May-21 15:30N 45°05' E 013°09'918.9
2017-May-21 15:00N 45°13' E 013°03'1717.5
2017-May-21 14:00N 45°30' E 013°11'918.4
2017-May-21 13:30N 45°34' E 013°22'918.2
2017-May-21 13:00N 45°38' E 013°34'714.8
2017-May-21 12:30N 45°39' E 013°45'1 1.9
2017-May-21 12:00N 45°39' E 013°46'0 0.0
2017-May-21 11:28N 45°39' E 013°46'0 0.0
2017-May-21 10:58N 45°39' E 013°46'0 0.0
2017-May-21 10:28N 45°39' E 013°46'0 0.0
2017-May-21 09:55N 45°39' E 013°46'0 0.0
2017-May-21 09:25N 45°39' E 013°46'0 0.0
2017-May-21 08:58N 45°39' E 013°46'0 0.0
2017-May-21 08:25N 45°39' E 013°46'0 0.0
2017-May-21 07:55N 45°39' E 013°46'0 0.0
2017-May-21 07:28N 45°39' E 013°46'0 0.0
2017-May-21 06:52N 45°39' E 013°46'0 0.0
2017-May-21 06:28N 45°39' E 013°46'0 0.0
2017-May-21 05:58N 45°39' E 013°46'0 0.0
2017-May-21 05:28N 45°39' E 013°46'0 0.0
2017-May-21 04:58N 45°39' E 013°46'0 0.2
2017-May-21 04:31N 45°39' E 013°46'3 5.0
2017-May-21 04:01N 45°39' E 013°42'4 8.4
2017-May-21 03:31N 45°37' E 013°37'5 9.0
2017-May-21 03:00N 45°35' E 013°31'4 8.8
2017-May-21 02:31N 45°32' E 013°26'5 9.3
2017-May-21 02:00N 45°30' E 013°20'5 9.3
2017-May-21 01:30N 45°28' E 013°14'5 9.4
2017-May-21 01:01N 45°27' E 013°08'4 8.6
2017-May-21 00:30N 45°26' E 013°02'4 7.3
2017-May-21 00:00N 45°26' E 012°57'5 9.5
2017-May-20 23:30N 45°22' E 012°53'5 9.5
2017-May-20 23:01N 45°18' E 012°50'5 9.3
2017-May-20 22:30N 45°13' E 012°47'5 9.2
2017-May-20 22:00N 45°10' E 012°43'4 7.6
2017-May-20 21:31N 45°08' E 012°38'5 9.0
2017-May-20 21:00N 45°11' E 012°33'4 8.4
2017-May-20 20:30N 45°15' E 012°30'5 9.4
2017-May-20 20:01N 45°19' E 012°30'5 9.1
2017-May-20 19:31N 45°24' E 012°29'4 8.6
2017-May-20 19:01N 45°26' E 012°24'3 5.4
2017-May-20 18:30N 45°26' E 012°20'1 2.5
2017-May-20 18:01N 45°26' E 012°19'0 0.0
2017-May-20 17:30N 45°26' E 012°19'0 0.0
2017-May-20 17:00N 45°26' E 012°19'0 0.0
2017-May-20 16:30N 45°26' E 012°19'0 0.0
2017-May-20 16:00N 45°26' E 012°19'0 0.0
2017-May-20 15:30N 45°26' E 012°19'0 0.0
2017-May-20 15:00N 45°26' E 012°19'0 0.0
2017-May-20 14:30N 45°26' E 012°19'0 0.0
2017-May-20 13:30N 45°26' E 012°19'0 0.0
2017-May-20 13:00N 45°26' E 012°19'0 0.0
2017-May-20 12:30N 45°26' E 012°19'0 0.0
2017-May-20 12:00N 45°26' E 012°19'0 0.0
2017-May-20 11:30N 45°26' E 012°19'0 0.0
2017-May-20 11:00N 45°26' E 012°19'0 0.0
2017-May-20 10:30N 45°26' E 012°19'0 0.0
2017-May-20 10:00N 45°26' E 012°19'0 0.0
2017-May-20 09:30N 45°26' E 012°19'0 0.0
2017-May-20 09:00N 45°26' E 012°19'0 0.0
2017-May-20 08:30N 45°26' E 012°19'0 0.0
2017-May-20 08:00N 45°26' E 012°19'0 0.0
2017-May-20 07:30N 45°26' E 012°19'0 0.0
2017-May-20 06:57N 45°26' E 012°19'0 0.0
2017-May-20 06:30N 45°26' E 012°19'1 1.5
2017-May-20 06:00N 45°26' E 012°19'2 4.9
2017-May-20 05:30N 45°26' E 012°23'5 9.1
2017-May-20 05:00N 45°24' E 012°29'611.2
2017-May-20 04:31N 45°19' E 012°32'917.3
2017-May-20 04:00N 45°13' E 012°40'917.7
2017-May-20 03:31N 45°06' E 012°49'918.8
2017-May-20 03:01N 44°58' E 012°55'1019.5
2017-May-20 02:30N 44°49' E 012°60'1019.8
2017-May-20 02:01N 44°40' E 013°05'1019.6
2017-May-20 01:31N 44°30' E 013°09'1019.5
2017-May-20 01:00N 44°21' E 013°14'918.9
2017-May-20 00:30N 44°14' E 013°23'1019.6
2017-May-20 00:00N 44°08' E 013°34'1019.5
2017-May-19 23:29N 44°02' E 013°45'919.0
2017-May-19 23:00N 43°56' E 013°55'1319.2
2017-May-19 22:18N 43°49' E 014°11'619.4
2017-May-19 22:01N 43°45' E 014°17'1319.3
2017-May-19 21:20N 43°39' E 014°32'619.2
2017-May-19 21:01N 43°35' E 014°39'25610.3
2017-May-18 20:00N 40°46' E 018°59'815.4
2017-May-18 19:30N 40°39' E 019°03'815.2
2017-May-18 18:58N 40°31' E 019°06'  

Dump ship's entire track history